sensor_id;sensor_type;location;lat;lon;timestamp;temperature;humidity
37460;DHT22;23318;50.966;5.284;2023-08-06T00:00:23;16.30;99.90
37460;DHT22;23318;50.966;5.284;2023-08-06T00:02:49;16.50;99.90
37460;DHT22;23318;50.966;5.284;2023-08-06T00:05:16;16.60;99.90
37460;DHT22;23318;50.966;5.284;2023-08-06T00:07:49;16.70;99.90
37460;DHT22;23318;50.966;5.284;2023-08-06T00:10:16;16.90;99.90
37460;DHT22;23318;50.966;5.284;2023-08-06T00:12:41;17.00;99.90
37460;DHT22;23318;50.966;5.284;2023-08-06T00:15:08;16.80;99.90
37460;DHT22;23318;50.966;5.284;2023-08-06T00:17:34;16.90;99.90
37460;DHT22;23318;50.966;5.284;2023-08-06T00:20:01;16.70;99.90
37460;DHT22;23318;50.966;5.284;2023-08-06T00:22:33;16.60;99.90
37460;DHT22;23318;50.966;5.284;2023-08-06T00:24:59;16.80;99.90
37460;DHT22;23318;50.966;5.284;2023-08-06T00:27:25;16.90;99.90
37460;DHT22;23318;50.966;5.284;2023-08-06T00:29:50;16.80;99.90
37460;DHT22;23318;50.966;5.284;2023-08-06T00:32:16;17.00;99.90
37460;DHT22;23318;50.966;5.284;2023-08-06T00:34:42;16.90;99.90
37460;DHT22;23318;50.966;5.284;2023-08-06T00:37:08;17.00;99.90
37460;DHT22;23318;50.966;5.284;2023-08-06T00:39:34;17.00;99.90
37460;DHT22;23318;50.966;5.284;2023-08-06T00:41:59;16.80;99.90
37460;DHT22;23318;50.966;5.284;2023-08-06T00:44:25;16.50;99.90
37460;DHT22;23318;50.966;5.284;2023-08-06T00:46:51;16.60;99.90
37460;DHT22;23318;50.966;5.284;2023-08-06T00:49:16;16.60;99.90
37460;DHT22;23318;50.966;5.284;2023-08-06T00:51:43;16.70;99.90
37460;DHT22;23318;50.966;5.284;2023-08-06T00:54:09;16.60;99.90
37460;DHT22;23318;50.966;5.284;2023-08-06T00:56:36;16.60;99.90
37460;DHT22;23318;50.966;5.284;2023-08-06T00:59:05;16.80;99.90
37460;DHT22;23318;50.966;5.284;2023-08-06T01:01:31;16.80;99.90
37460;DHT22;23318;50.966;5.284;2023-08-06T01:03:57;16.80;99.90
37460;DHT22;23318;50.966;5.284;2023-08-06T01:06:51;16.60;99.90
37460;DHT22;23318;50.966;5.284;2023-08-06T01:09:25;16.80;99.90
37460;DHT22;23318;50.966;5.284;2023-08-06T01:14:41;16.70;99.90
37460;DHT22;23318;50.966;5.284;2023-08-06T01:17:10;16.70;99.90
37460;DHT22;23318;50.966;5.284;2023-08-06T01:19:36;16.70;99.90
37460;DHT22;23318;50.966;5.284;2023-08-06T01:22:01;16.90;99.90
37460;DHT22;23318;50.966;5.284;2023-08-06T01:24:27;17.00;99.90
37460;DHT22;23318;50.966;5.284;2023-08-06T01:27:56;17.00;99.90
37460;DHT22;23318;50.966;5.284;2023-08-06T01:30:04;16.70;99.90
37460;DHT22;23318;50.966;5.284;2023-08-06T01:32:34;16.80;99.90
37460;DHT22;23318;50.966;5.284;2023-08-06T01:35:02;16.80;99.90
37460;DHT22;23318;50.966;5.284;2023-08-06T01:37:29;16.70;99.90
37460;DHT22;23318;50.966;5.284;2023-08-06T01:39:55;16.70;99.90
37460;DHT22;23318;50.966;5.284;2023-08-06T01:42:21;16.80;99.90
37460;DHT22;23318;50.966;5.284;2023-08-06T01:44:46;16.80;99.90
37460;DHT22;23318;50.966;5.284;2023-08-06T01:47:12;16.90;99.90
37460;DHT22;23318;50.966;5.284;2023-08-06T01:49:38;16.10;99.90
37460;DHT22;23318;50.966;5.284;2023-08-06T01:52:04;16.50;99.90
37460;DHT22;23318;50.966;5.284;2023-08-06T01:54:29;16.50;99.90
37460;DHT22;23318;50.966;5.284;2023-08-06T01:56:55;16.50;99.90
37460;DHT22;23318;50.966;5.284;2023-08-06T01:59:21;16.10;99.90
37460;DHT22;23318;50.966;5.284;2023-08-06T02:01:46;16.30;99.90
37460;DHT22;23318;50.966;5.284;2023-08-06T02:04:12;16.60;99.90
37460;DHT22;23318;50.966;5.284;2023-08-06T02:06:38;16.20;99.90
37460;DHT22;23318;50.966;5.284;2023-08-06T02:09:03;16.40;99.90
37460;DHT22;23318;50.966;5.284;2023-08-06T02:11:29;16.40;99.90
37460;DHT22;23318;50.966;5.284;2023-08-06T02:13:54;16.60;99.90
37460;DHT22;23318;50.966;5.284;2023-08-06T02:16:20;16.70;99.90
37460;DHT22;23318;50.966;5.284;2023-08-06T02:18:46;16.80;99.90
37460;DHT22;23318;50.966;5.284;2023-08-06T02:21:11;16.80;99.90
37460;DHT22;23318;50.966;5.284;2023-08-06T02:23:37;17.00;99.90
37460;DHT22;23318;50.966;5.284;2023-08-06T02:26:03;16.70;99.90
37460;DHT22;23318;50.966;5.284;2023-08-06T02:28:30;16.60;99.90
37460;DHT22;23318;50.966;5.284;2023-08-06T02:30:56;16.70;99.90
37460;DHT22;23318;50.966;5.284;2023-08-06T02:33:22;16.90;99.90
37460;DHT22;23318;50.966;5.284;2023-08-06T02:35:48;17.00;99.90
37460;DHT22;23318;50.966;5.284;2023-08-06T02:38:13;17.10;99.90
37460;DHT22;23318;50.966;5.284;2023-08-06T02:40:46;17.10;99.90
37460;DHT22;23318;50.966;5.284;2023-08-06T02:43:12;17.00;99.90
37460;DHT22;23318;50.966;5.284;2023-08-06T02:45:38;17.00;99.90
37460;DHT22;23318;50.966;5.284;2023-08-06T02:48:04;17.10;99.90
37460;DHT22;23318;50.966;5.284;2023-08-06T02:50:29;17.20;99.90
37460;DHT22;23318;50.966;5.284;2023-08-06T02:52:55;17.20;99.90
37460;DHT22;23318;50.966;5.284;2023-08-06T02:55:21;17.30;99.90
37460;DHT22;23318;50.966;5.284;2023-08-06T02:57:46;17.30;99.90
37460;DHT22;23318;50.966;5.284;2023-08-06T03:00:12;17.30;99.90
37460;DHT22;23318;50.966;5.284;2023-08-06T03:02:38;17.30;99.90
37460;DHT22;23318;50.966;5.284;2023-08-06T03:05:03;17.30;99.90
37460;DHT22;23318;50.966;5.284;2023-08-06T03:07:30;17.10;99.90
37460;DHT22;23318;50.966;5.284;2023-08-06T03:09:55;17.00;99.90
37460;DHT22;23318;50.966;5.284;2023-08-06T03:12:21;17.30;99.90
37460;DHT22;23318;50.966;5.284;2023-08-06T03:14:46;17.40;99.90
37460;DHT22;23318;50.966;5.284;2023-08-06T03:17:12;17.50;99.90
37460;DHT22;23318;50.966;5.284;2023-08-06T03:19:38;17.50;99.90
37460;DHT22;23318;50.966;5.284;2023-08-06T03:22:03;17.50;99.90
37460;DHT22;23318;50.966;5.284;2023-08-06T03:24:29;17.50;99.90
37460;DHT22;23318;50.966;5.284;2023-08-06T03:26:55;17.50;99.90
37460;DHT22;23318;50.966;5.284;2023-08-06T03:29:20;17.30;99.90
37460;DHT22;23318;50.966;5.284;2023-08-06T03:31:47;17.40;99.90
37460;DHT22;23318;50.966;5.284;2023-08-06T03:34:13;17.50;99.90
37460;DHT22;23318;50.966;5.284;2023-08-06T03:36:38;17.00;99.90
37460;DHT22;23318;50.966;5.284;2023-08-06T03:39:04;17.30;99.90
37460;DHT22;23318;50.966;5.284;2023-08-06T03:41:30;17.20;99.90
37460;DHT22;23318;50.966;5.284;2023-08-06T03:43:55;17.10;99.90
37460;DHT22;23318;50.966;5.284;2023-08-06T03:46:21;16.40;99.90
37460;DHT22;23318;50.966;5.284;2023-08-06T03:48:47;15.90;99.90
37460;DHT22;23318;50.966;5.284;2023-08-06T03:51:12;16.00;99.90
37460;DHT22;23318;50.966;5.284;2023-08-06T03:53:38;15.80;99.90
37460;DHT22;23318;50.966;5.284;2023-08-06T03:56:04;15.80;99.90
37460;DHT22;23318;50.966;5.284;2023-08-06T03:58:29;15.60;99.90
37460;DHT22;23318;50.966;5.284;2023-08-06T04:01:02;15.80;99.90
37460;DHT22;23318;50.966;5.284;2023-08-06T04:03:29;15.80;99.90
37460;DHT22;23318;50.966;5.284;2023-08-06T04:05:55;16.10;99.90
37460;DHT22;23318;50.966;5.284;2023-08-06T04:08:20;16.30;99.90
37460;DHT22;23318;50.966;5.284;2023-08-06T04:10:49;15.90;99.90
37460;DHT22;23318;50.966;5.284;2023-08-06T04:13:15;16.10;99.90
37460;DHT22;23318;50.966;5.284;2023-08-06T04:15:41;15.90;99.90
37460;DHT22;23318;50.966;5.284;2023-08-06T04:18:06;16.00;99.90
37460;DHT22;23318;50.966;5.284;2023-08-06T04:20:32;16.00;99.90
37460;DHT22;23318;50.966;5.284;2023-08-06T04:22:58;15.90;99.90
37460;DHT22;23318;50.966;5.284;2023-08-06T04:25:23;15.70;99.90
37460;DHT22;23318;50.966;5.284;2023-08-06T04:27:49;16.10;99.90
37460;DHT22;23318;50.966;5.284;2023-08-06T04:30:15;16.10;99.90
37460;DHT22;23318;50.966;5.284;2023-08-06T04:32:41;16.20;99.90
37460;DHT22;23318;50.966;5.284;2023-08-06T04:35:07;15.80;99.90
37460;DHT22;23318;50.966;5.284;2023-08-06T04:37:32;15.60;99.90
37460;DHT22;23318;50.966;5.284;2023-08-06T04:39:58;15.50;99.90
37460;DHT22;23318;50.966;5.284;2023-08-06T04:42:24;15.20;99.90
37460;DHT22;23318;50.966;5.284;2023-08-06T04:44:50;15.20;99.90
37460;DHT22;23318;50.966;5.284;2023-08-06T04:47:15;15.30;99.90
37460;DHT22;23318;50.966;5.284;2023-08-06T04:49:41;15.60;99.90
37460;DHT22;23318;50.966;5.284;2023-08-06T04:52:07;15.60;99.90
37460;DHT22;23318;50.966;5.284;2023-08-06T04:54:33;15.60;99.90
37460;DHT22;23318;50.966;5.284;2023-08-06T04:56:59;15.80;99.90
37460;DHT22;23318;50.966;5.284;2023-08-06T04:59:24;15.80;99.90
37460;DHT22;23318;50.966;5.284;2023-08-06T05:01:50;16.00;99.90
37460;DHT22;23318;50.966;5.284;2023-08-06T05:04:16;16.00;99.90
37460;DHT22;23318;50.966;5.284;2023-08-06T05:06:41;16.10;99.90
37460;DHT22;23318;50.966;5.284;2023-08-06T05:09:07;16.30;99.90
37460;DHT22;23318;50.966;5.284;2023-08-06T05:11:33;16.30;99.90
37460;DHT22;23318;50.966;5.284;2023-08-06T05:13:58;16.10;99.90
37460;DHT22;23318;50.966;5.284;2023-08-06T05:16:24;16.10;99.90
37460;DHT22;23318;50.966;5.284;2023-08-06T05:18:49;16.20;99.90
37460;DHT22;23318;50.966;5.284;2023-08-06T05:21:15;15.80;99.90
37460;DHT22;23318;50.966;5.284;2023-08-06T05:23:42;15.70;99.90
37460;DHT22;23318;50.966;5.284;2023-08-06T05:26:08;15.80;99.90
37460;DHT22;23318;50.966;5.284;2023-08-06T05:28:34;15.90;99.90
37460;DHT22;23318;50.966;5.284;2023-08-06T05:31:05;15.90;99.90
37460;DHT22;23318;50.966;5.284;2023-08-06T05:33:31;16.00;99.90
37460;DHT22;23318;50.966;5.284;2023-08-06T05:35:57;15.80;99.90
37460;DHT22;23318;50.966;5.284;2023-08-06T05:38:23;15.70;99.90
37460;DHT22;23318;50.966;5.284;2023-08-06T05:40:48;15.60;99.90
37460;DHT22;23318;50.966;5.284;2023-08-06T05:43:14;15.50;99.90
37460;DHT22;23318;50.966;5.284;2023-08-06T05:45:44;15.50;99.90
37460;DHT22;23318;50.966;5.284;2023-08-06T05:48:10;15.30;99.90
37460;DHT22;23318;50.966;5.284;2023-08-06T05:50:36;15.20;99.90
37460;DHT22;23318;50.966;5.284;2023-08-06T05:53:01;15.10;99.90
37460;DHT22;23318;50.966;5.284;2023-08-06T05:55:27;15.30;99.90
37460;DHT22;23318;50.966;5.284;2023-08-06T05:57:53;15.30;99.90
37460;DHT22;23318;50.966;5.284;2023-08-06T06:00:19;15.30;99.90
37460;DHT22;23318;50.966;5.284;2023-08-06T06:02:45;15.40;99.90
37460;DHT22;23318;50.966;5.284;2023-08-06T06:05:11;15.50;99.90
37460;DHT22;23318;50.966;5.284;2023-08-06T06:07:36;15.50;99.90
37460;DHT22;23318;50.966;5.284;2023-08-06T06:10:02;15.50;99.90
37460;DHT22;23318;50.966;5.284;2023-08-06T06:12:28;15.50;99.90
37460;DHT22;23318;50.966;5.284;2023-08-06T06:14:54;15.30;99.90
37460;DHT22;23318;50.966;5.284;2023-08-06T06:17:20;15.00;99.90
37460;DHT22;23318;50.966;5.284;2023-08-06T06:19:45;14.90;99.90
37460;DHT22;23318;50.966;5.284;2023-08-06T06:22:12;14.80;99.90
37460;DHT22;23318;50.966;5.284;2023-08-06T06:24:37;14.60;99.90
37460;DHT22;23318;50.966;5.284;2023-08-06T06:27:03;14.50;99.90
37460;DHT22;23318;50.966;5.284;2023-08-06T06:29:29;14.40;99.90
37460;DHT22;23318;50.966;5.284;2023-08-06T06:31:55;14.30;99.90
37460;DHT22;23318;50.966;5.284;2023-08-06T06:34:20;14.20;99.90
37460;DHT22;23318;50.966;5.284;2023-08-06T06:36:46;14.30;99.90
37460;DHT22;23318;50.966;5.284;2023-08-06T06:39:12;14.30;99.90
37460;DHT22;23318;50.966;5.284;2023-08-06T06:41:37;14.00;99.90
37460;DHT22;23318;50.966;5.284;2023-08-06T06:44:03;14.00;99.90
37460;DHT22;23318;50.966;5.284;2023-08-06T06:46:29;14.00;99.90
37460;DHT22;23318;50.966;5.284;2023-08-06T06:48:54;14.00;99.90
37460;DHT22;23318;50.966;5.284;2023-08-06T06:51:20;14.00;99.90
37460;DHT22;23318;50.966;5.284;2023-08-06T06:53:46;14.00;99.90
37460;DHT22;23318;50.966;5.284;2023-08-06T06:56:11;14.10;99.90
37460;DHT22;23318;50.966;5.284;2023-08-06T06:58:37;14.10;99.90
37460;DHT22;23318;50.966;5.284;2023-08-06T07:01:04;14.20;99.90
37460;DHT22;23318;50.966;5.284;2023-08-06T07:03:30;14.10;99.90
37460;DHT22;23318;50.966;5.284;2023-08-06T07:05:59;14.10;99.90
37460;DHT22;23318;50.966;5.284;2023-08-06T07:08:25;14.30;99.90
37460;DHT22;23318;50.966;5.284;2023-08-06T07:10:51;14.40;99.90
37460;DHT22;23318;50.966;5.284;2023-08-06T07:13:24;14.60;99.90
37460;DHT22;23318;50.966;5.284;2023-08-06T07:15:50;14.50;99.90
37460;DHT22;23318;50.966;5.284;2023-08-06T07:18:15;14.50;99.90
37460;DHT22;23318;50.966;5.284;2023-08-06T07:20:41;14.50;99.90
37460;DHT22;23318;50.966;5.284;2023-08-06T07:23:06;14.40;99.90
37460;DHT22;23318;50.966;5.284;2023-08-06T07:25:32;14.50;99.90
37460;DHT22;23318;50.966;5.284;2023-08-06T07:27:58;14.50;99.90
37460;DHT22;23318;50.966;5.284;2023-08-06T07:30:23;14.60;99.90
37460;DHT22;23318;50.966;5.284;2023-08-06T07:32:49;14.50;99.90
37460;DHT22;23318;50.966;5.284;2023-08-06T07:35:15;14.60;99.90
37460;DHT22;23318;50.966;5.284;2023-08-06T07:37:41;14.50;99.90
37460;DHT22;23318;50.966;5.284;2023-08-06T07:40:07;14.40;99.90
37460;DHT22;23318;50.966;5.284;2023-08-06T07:42:32;14.40;99.90
37460;DHT22;23318;50.966;5.284;2023-08-06T07:44:59;14.40;99.90
37460;DHT22;23318;50.966;5.284;2023-08-06T07:47:24;14.30;99.90
37460;DHT22;23318;50.966;5.284;2023-08-06T07:49:50;14.30;99.90
37460;DHT22;23318;50.966;5.284;2023-08-06T07:52:16;14.40;99.90
37460;DHT22;23318;50.966;5.284;2023-08-06T07:54:41;14.30;99.90
37460;DHT22;23318;50.966;5.284;2023-08-06T07:57:07;14.30;99.90
37460;DHT22;23318;50.966;5.284;2023-08-06T07:59:33;14.30;99.90
37460;DHT22;23318;50.966;5.284;2023-08-06T08:01:59;14.20;99.90
37460;DHT22;23318;50.966;5.284;2023-08-06T08:04:25;14.30;99.90
37460;DHT22;23318;50.966;5.284;2023-08-06T08:06:51;14.30;99.90
37460;DHT22;23318;50.966;5.284;2023-08-06T08:09:16;14.20;99.90
37460;DHT22;23318;50.966;5.284;2023-08-06T08:11:42;14.20;99.90
37460;DHT22;23318;50.966;5.284;2023-08-06T08:14:08;14.20;99.90
37460;DHT22;23318;50.966;5.284;2023-08-06T08:16:33;14.20;99.90
37460;DHT22;23318;50.966;5.284;2023-08-06T08:18:59;14.20;99.90
37460;DHT22;23318;50.966;5.284;2023-08-06T08:21:25;14.30;99.90
37460;DHT22;23318;50.966;5.284;2023-08-06T08:23:51;14.30;99.90
37460;DHT22;23318;50.966;5.284;2023-08-06T08:26:17;14.20;99.90
37460;DHT22;23318;50.966;5.284;2023-08-06T08:28:43;14.30;99.90
37460;DHT22;23318;50.966;5.284;2023-08-06T08:31:10;14.30;99.90
37460;DHT22;23318;50.966;5.284;2023-08-06T08:33:37;14.30;99.90
37460;DHT22;23318;50.966;5.284;2023-08-06T08:36:03;14.40;99.90
37460;DHT22;23318;50.966;5.284;2023-08-06T08:38:28;14.30;99.90
37460;DHT22;23318;50.966;5.284;2023-08-06T08:40:54;14.40;99.90
37460;DHT22;23318;50.966;5.284;2023-08-06T08:43:21;14.40;99.90
37460;DHT22;23318;50.966;5.284;2023-08-06T08:45:50;14.30;99.90
37460;DHT22;23318;50.966;5.284;2023-08-06T08:48:17;14.30;99.90
37460;DHT22;23318;50.966;5.284;2023-08-06T08:50:45;14.30;99.90
37460;DHT22;23318;50.966;5.284;2023-08-06T08:53:14;14.50;99.90
37460;DHT22;23318;50.966;5.284;2023-08-06T08:55:40;14.50;99.90
37460;DHT22;23318;50.966;5.284;2023-08-06T08:58:08;14.50;99.90
37460;DHT22;23318;50.966;5.284;2023-08-06T09:00:34;14.50;99.90
37460;DHT22;23318;50.966;5.284;2023-08-06T09:03:01;14.50;99.90
37460;DHT22;23318;50.966;5.284;2023-08-06T09:05:29;14.30;99.90
37460;DHT22;23318;50.966;5.284;2023-08-06T09:08:03;14.40;99.90
37460;DHT22;23318;50.966;5.284;2023-08-06T09:10:29;14.50;99.90
37460;DHT22;23318;50.966;5.284;2023-08-06T09:12:56;14.50;99.90
37460;DHT22;23318;50.966;5.284;2023-08-06T09:15:24;14.50;99.90
37460;DHT22;23318;50.966;5.284;2023-08-06T09:17:51;14.60;99.90
37460;DHT22;23318;50.966;5.284;2023-08-06T09:20:17;14.80;99.90
37460;DHT22;23318;50.966;5.284;2023-08-06T09:22:43;14.80;99.90
37460;DHT22;23318;50.966;5.284;2023-08-06T09:25:10;14.70;99.90
37460;DHT22;23318;50.966;5.284;2023-08-06T09:27:37;14.60;99.90
37460;DHT22;23318;50.966;5.284;2023-08-06T09:30:04;14.50;99.90
37460;DHT22;23318;50.966;5.284;2023-08-06T09:32:45;14.80;99.90
37460;DHT22;23318;50.966;5.284;2023-08-06T09:35:16;15.00;99.90
37460;DHT22;23318;50.966;5.284;2023-08-06T09:37:42;14.70;99.90
37460;DHT22;23318;50.966;5.284;2023-08-06T09:40:27;14.70;99.90
37460;DHT22;23318;50.966;5.284;2023-08-06T09:42:53;14.70;99.90
37460;DHT22;23318;50.966;5.284;2023-08-06T09:45:19;14.60;99.90
37460;DHT22;23318;50.966;5.284;2023-08-06T09:47:45;14.60;99.90
37460;DHT22;23318;50.966;5.284;2023-08-06T09:50:18;14.50;99.90
37460;DHT22;23318;50.966;5.284;2023-08-06T09:52:44;14.60;99.90
37460;DHT22;23318;50.966;5.284;2023-08-06T09:55:13;14.70;99.90
37460;DHT22;23318;50.966;5.284;2023-08-06T09:57:42;14.60;99.90
37460;DHT22;23318;50.966;5.284;2023-08-06T10:00:11;14.60;99.90
37460;DHT22;23318;50.966;5.284;2023-08-06T10:02:38;14.90;99.90
37460;DHT22;23318;50.966;5.284;2023-08-06T10:05:05;14.90;99.90
37460;DHT22;23318;50.966;5.284;2023-08-06T10:07:31;14.80;99.90
37460;DHT22;23318;50.966;5.284;2023-08-06T10:09:58;14.70;99.90
37460;DHT22;23318;50.966;5.284;2023-08-06T10:12:24;14.60;99.90
37460;DHT22;23318;50.966;5.284;2023-08-06T10:14:53;14.70;99.90
37460;DHT22;23318;50.966;5.284;2023-08-06T10:17:21;14.70;99.90
37460;DHT22;23318;50.966;5.284;2023-08-06T10:19:48;14.80;99.90
37460;DHT22;23318;50.966;5.284;2023-08-06T10:22:16;14.60;99.90
37460;DHT22;23318;50.966;5.284;2023-08-06T10:24:50;14.40;99.90
37460;DHT22;23318;50.966;5.284;2023-08-06T10:27:29;14.40;99.90
37460;DHT22;23318;50.966;5.284;2023-08-06T10:30:20;14.40;99.90
37460;DHT22;23318;50.966;5.284;2023-08-06T10:32:52;14.30;99.90
37460;DHT22;23318;50.966;5.284;2023-08-06T10:35:38;14.30;99.90
37460;DHT22;23318;50.966;5.284;2023-08-06T10:38:10;14.30;99.90
37460;DHT22;23318;50.966;5.284;2023-08-06T10:40:39;14.40;99.90
37460;DHT22;23318;50.966;5.284;2023-08-06T10:43:05;14.40;99.90
37460;DHT22;23318;50.966;5.284;2023-08-06T10:45:36;14.40;99.90
37460;DHT22;23318;50.966;5.284;2023-08-06T10:48:03;14.40;99.90
37460;DHT22;23318;50.966;5.284;2023-08-06T10:50:29;14.50;99.90
37460;DHT22;23318;50.966;5.284;2023-08-06T10:52:57;14.50;99.90
37460;DHT22;23318;50.966;5.284;2023-08-06T10:55:27;14.50;99.90
37460;DHT22;23318;50.966;5.284;2023-08-06T10:57:54;14.30;99.90
37460;DHT22;23318;50.966;5.284;2023-08-06T11:00:21;14.30;99.90
37460;DHT22;23318;50.966;5.284;2023-08-06T11:02:48;14.30;99.90
37460;DHT22;23318;50.966;5.284;2023-08-06T11:05:15;14.40;99.90
37460;DHT22;23318;50.966;5.284;2023-08-06T11:07:40;14.50;99.90
37460;DHT22;23318;50.966;5.284;2023-08-06T11:10:15;14.60;99.90
37460;DHT22;23318;50.966;5.284;2023-08-06T11:12:40;14.60;99.90
37460;DHT22;23318;50.966;5.284;2023-08-06T11:15:07;14.50;99.90
37460;DHT22;23318;50.966;5.284;2023-08-06T11:17:34;14.60;99.90
37460;DHT22;23318;50.966;5.284;2023-08-06T11:20:01;14.50;99.90
37460;DHT22;23318;50.966;5.284;2023-08-06T11:22:27;14.70;99.90
37460;DHT22;23318;50.966;5.284;2023-08-06T11:24:53;14.70;99.90
37460;DHT22;23318;50.966;5.284;2023-08-06T11:27:19;14.60;99.90
37460;DHT22;23318;50.966;5.284;2023-08-06T11:29:45;14.60;99.90
37460;DHT22;23318;50.966;5.284;2023-08-06T11:32:11;14.60;99.90
37460;DHT22;23318;50.966;5.284;2023-08-06T11:34:38;14.50;99.90
37460;DHT22;23318;50.966;5.284;2023-08-06T11:37:05;14.50;99.90
37460;DHT22;23318;50.966;5.284;2023-08-06T11:39:38;14.60;99.90
37460;DHT22;23318;50.966;5.284;2023-08-06T11:42:05;14.80;99.90
37460;DHT22;23318;50.966;5.284;2023-08-06T11:44:32;14.80;99.90
37460;DHT22;23318;50.966;5.284;2023-08-06T11:46:59;14.90;99.90
37460;DHT22;23318;50.966;5.284;2023-08-06T11:54:42;15.30;99.90
37460;DHT22;23318;50.966;5.284;2023-08-06T11:57:08;15.30;99.90
37460;DHT22;23318;50.966;5.284;2023-08-06T11:59:33;15.50;99.90
37460;DHT22;23318;50.966;5.284;2023-08-06T12:02:04;15.20;99.90
37460;DHT22;23318;50.966;5.284;2023-08-06T12:05:09;15.10;99.90
37460;DHT22;23318;50.966;5.284;2023-08-06T12:07:41;15.00;99.90
37460;DHT22;23318;50.966;5.284;2023-08-06T12:10:07;14.90;99.90
37460;DHT22;23318;50.966;5.284;2023-08-06T12:12:34;14.70;99.90
37460;DHT22;23318;50.966;5.284;2023-08-06T12:14:59;14.50;99.90
37460;DHT22;23318;50.966;5.284;2023-08-06T12:17:25;14.40;99.90
37460;DHT22;23318;50.966;5.284;2023-08-06T12:19:51;14.50;99.90
37460;DHT22;23318;50.966;5.284;2023-08-06T12:22:17;14.50;99.90
37460;DHT22;23318;50.966;5.284;2023-08-06T12:24:44;14.30;99.90
37460;DHT22;23318;50.966;5.284;2023-08-06T12:27:11;14.50;99.90
37460;DHT22;23318;50.966;5.284;2023-08-06T12:29:44;14.50;99.90
37460;DHT22;23318;50.966;5.284;2023-08-06T12:32:11;14.40;99.90
37460;DHT22;23318;50.966;5.284;2023-08-06T12:34:41;14.40;99.90
37460;DHT22;23318;50.966;5.284;2023-08-06T12:37:07;14.50;99.90
37460;DHT22;23318;50.966;5.284;2023-08-06T12:39:34;14.60;99.90
37460;DHT22;23318;50.966;5.284;2023-08-06T12:42:01;14.70;99.90
37460;DHT22;23318;50.966;5.284;2023-08-06T12:44:26;14.70;99.90
37460;DHT22;23318;50.966;5.284;2023-08-06T12:46:52;14.60;99.90
37460;DHT22;23318;50.966;5.284;2023-08-06T12:49:19;14.80;99.90
37460;DHT22;23318;50.966;5.284;2023-08-06T12:51:47;14.60;99.90
37460;DHT22;23318;50.966;5.284;2023-08-06T12:54:12;14.50;99.90
37460;DHT22;23318;50.966;5.284;2023-08-06T12:56:38;14.50;99.90
37460;DHT22;23318;50.966;5.284;2023-08-06T12:59:03;14.50;99.90
37460;DHT22;23318;50.966;5.284;2023-08-06T13:01:29;14.50;99.90
37460;DHT22;23318;50.966;5.284;2023-08-06T13:03:55;14.60;99.90
37460;DHT22;23318;50.966;5.284;2023-08-06T13:06:20;14.60;99.90
37460;DHT22;23318;50.966;5.284;2023-08-06T13:08:46;14.60;99.90
37460;DHT22;23318;50.966;5.284;2023-08-06T13:11:12;14.60;99.90
37460;DHT22;23318;50.966;5.284;2023-08-06T13:13:37;14.40;99.90
37460;DHT22;23318;50.966;5.284;2023-08-06T13:16:03;14.40;99.90
37460;DHT22;23318;50.966;5.284;2023-08-06T13:18:29;14.40;99.90
37460;DHT22;23318;50.966;5.284;2023-08-06T13:20:55;14.30;99.90
37460;DHT22;23318;50.966;5.284;2023-08-06T13:23:21;14.20;99.90
37460;DHT22;23318;50.966;5.284;2023-08-06T13:25:46;14.20;99.90
37460;DHT22;23318;50.966;5.284;2023-08-06T13:28:12;14.20;99.90
37460;DHT22;23318;50.966;5.284;2023-08-06T13:30:39;14.30;99.90
37460;DHT22;23318;50.966;5.284;2023-08-06T13:33:08;14.30;99.90
37460;DHT22;23318;50.966;5.284;2023-08-06T13:35:34;14.10;99.90
37460;DHT22;23318;50.966;5.284;2023-08-06T13:37:59;14.30;99.90
37460;DHT22;23318;50.966;5.284;2023-08-06T13:40:28;14.20;99.90
37460;DHT22;23318;50.966;5.284;2023-08-06T13:42:54;14.20;99.90
37460;DHT22;23318;50.966;5.284;2023-08-06T13:45:19;14.00;99.90
37460;DHT22;23318;50.966;5.284;2023-08-06T13:47:45;14.20;99.90
37460;DHT22;23318;50.966;5.284;2023-08-06T13:50:11;14.20;99.90
37460;DHT22;23318;50.966;5.284;2023-08-06T13:52:36;14.20;99.90
37460;DHT22;23318;50.966;5.284;2023-08-06T13:55:02;14.20;99.90
37460;DHT22;23318;50.966;5.284;2023-08-06T13:57:29;14.20;99.90
37460;DHT22;23318;50.966;5.284;2023-08-06T13:59:55;14.20;99.90
37460;DHT22;23318;50.966;5.284;2023-08-06T14:02:22;14.10;99.90
37460;DHT22;23318;50.966;5.284;2023-08-06T14:04:47;14.10;99.90
37460;DHT22;23318;50.966;5.284;2023-08-06T14:07:13;14.20;99.90
37460;DHT22;23318;50.966;5.284;2023-08-06T14:09:39;14.10;99.90
37460;DHT22;23318;50.966;5.284;2023-08-06T14:12:06;14.30;99.90
37460;DHT22;23318;50.966;5.284;2023-08-06T14:14:31;14.30;99.90
37460;DHT22;23318;50.966;5.284;2023-08-06T14:16:57;14.40;99.90
37460;DHT22;23318;50.966;5.284;2023-08-06T14:19:23;14.50;99.90
37460;DHT22;23318;50.966;5.284;2023-08-06T14:21:49;14.40;99.90
37460;DHT22;23318;50.966;5.284;2023-08-06T14:24:15;14.50;99.90
37460;DHT22;23318;50.966;5.284;2023-08-06T14:26:40;14.50;99.90
37460;DHT22;23318;50.966;5.284;2023-08-06T14:29:06;14.50;99.90
37460;DHT22;23318;50.966;5.284;2023-08-06T14:31:32;14.50;99.90
37460;DHT22;23318;50.966;5.284;2023-08-06T14:33:57;14.50;99.90
37460;DHT22;23318;50.966;5.284;2023-08-06T14:36:23;14.50;99.90
37460;DHT22;23318;50.966;5.284;2023-08-06T14:38:49;14.30;99.90
37460;DHT22;23318;50.966;5.284;2023-08-06T14:41:14;14.40;99.90
37460;DHT22;23318;50.966;5.284;2023-08-06T14:43:40;14.30;99.90
37460;DHT22;23318;50.966;5.284;2023-08-06T14:46:06;14.20;99.90
37460;DHT22;23318;50.966;5.284;2023-08-06T14:48:31;14.30;99.90
37460;DHT22;23318;50.966;5.284;2023-08-06T14:50:57;14.10;99.90
37460;DHT22;23318;50.966;5.284;2023-08-06T14:53:23;14.00;99.90
37460;DHT22;23318;50.966;5.284;2023-08-06T14:55:48;14.00;99.90
37460;DHT22;23318;50.966;5.284;2023-08-06T14:58:14;14.00;99.90
37460;DHT22;23318;50.966;5.284;2023-08-06T15:00:40;14.00;99.90
37460;DHT22;23318;50.966;5.284;2023-08-06T15:03:05;14.10;99.90
37460;DHT22;23318;50.966;5.284;2023-08-06T15:05:31;13.90;99.90
37460;DHT22;23318;50.966;5.284;2023-08-06T15:07:57;14.00;99.90
37460;DHT22;23318;50.966;5.284;2023-08-06T15:10:22;14.00;99.90
37460;DHT22;23318;50.966;5.284;2023-08-06T15:12:48;13.90;99.90
37460;DHT22;23318;50.966;5.284;2023-08-06T15:15:14;13.80;99.90
37460;DHT22;23318;50.966;5.284;2023-08-06T15:17:40;13.90;99.90
37460;DHT22;23318;50.966;5.284;2023-08-06T15:20:06;13.90;99.90
37460;DHT22;23318;50.966;5.284;2023-08-06T15:22:32;13.80;99.90
37460;DHT22;23318;50.966;5.284;2023-08-06T15:25:00;13.90;99.90
37460;DHT22;23318;50.966;5.284;2023-08-06T15:27:25;13.90;99.90
37460;DHT22;23318;50.966;5.284;2023-08-06T15:29:52;14.00;99.90
37460;DHT22;23318;50.966;5.284;2023-08-06T15:32:18;14.00;99.90
37460;DHT22;23318;50.966;5.284;2023-08-06T15:34:44;14.10;99.90